PST weather

Preston Airport
Preston, HolguĂ­n, Cuba

Public forecast

Using degrees Celsius for public forecast. Weather courtesy of forecast.io.

Closest aviation weather report (METAR) to Preston Airport

Closest report is Frank Pais International Airport, 37.0 nm (68.5 km) W. Retrieved 2019/10/15 18:50 UTC (1 hour ago):

MUHG 151850Z 04008KT 010V080 9000 SCT020 31/25 Q1013

Closest aviation forecast (TAF) to Preston Airport

Closest forecast is Frank Pais International Airport, 37.0 nm (68.5 km) W. Retrieved 2019/10/15 18:03 UTC (2 hours ago):

TAF MUHG 151700Z 1518/1618 08008KT 9000 SCT018 TEMPO 1518/1524 5000 SHRA SCT018CB BKN018 BECMG 1601/1603 VRB03KT